aviador You're here:

KRID Decoded Metar

in
Report Time2017-03-23 23:55:00
UTC Time2017-03-24 00:02:47
Flight Rules vfr VFR
Wind140° at 06 kt
W.Decomp.*RWY 15: 5.9 kt HW 1 kt LCW
RWY 06: 1.0 kt HW 5.9 kt RCW
Visibility9999 m
Phenomena:N/A
Clouds:Scattered 055 Hf
Scattered 110 Hf
Expected CloudBase > 3,600 ft AGL from Temp-Dew spread
CeilingNone
Temp09°C
Dew Point00°C (54% RH)
AAT4.9°C
QNH1024 hPa
Raw Report
METAR KRID 232355Z AUTO 14006KT 10SM SCT055 SCT110 09/00 A3025 RMK
AO2=

Extra information for KRID:More info

Social comments